sensor_id;sensor_type;location;lat;lon;timestamp;temperature;humidity
1948;DHT22;974;52.400;9.818;2023-09-19T00:00:42;16.60;99.90
1948;DHT22;974;52.400;9.818;2023-09-19T00:03:09;16.60;99.90
1948;DHT22;974;52.400;9.818;2023-09-19T00:05:36;16.50;99.90
1948;DHT22;974;52.400;9.818;2023-09-19T00:08:04;16.50;99.90
1948;DHT22;974;52.400;9.818;2023-09-19T00:10:30;16.60;99.90
1948;DHT22;974;52.400;9.818;2023-09-19T00:12:57;16.50;99.90
1948;DHT22;974;52.400;9.818;2023-09-19T00:15:26;16.60;99.90
1948;DHT22;974;52.400;9.818;2023-09-19T00:17:58;16.50;99.90
1948;DHT22;974;52.400;9.818;2023-09-19T00:20:24;16.50;99.90
1948;DHT22;974;52.400;9.818;2023-09-19T00:22:53;16.50;99.90
1948;DHT22;974;52.400;9.818;2023-09-19T00:25:19;16.40;99.90
1948;DHT22;974;52.400;9.818;2023-09-19T00:27:46;16.40;99.90
1948;DHT22;974;52.400;9.818;2023-09-19T00:30:13;16.40;99.90
1948;DHT22;974;52.400;9.818;2023-09-19T00:32:45;16.40;99.90
1948;DHT22;974;52.400;9.818;2023-09-19T00:35:13;16.40;99.90
1948;DHT22;974;52.400;9.818;2023-09-19T00:37:40;16.40;99.90
1948;DHT22;974;52.400;9.818;2023-09-19T00:40:10;16.40;99.90
1948;DHT22;974;52.400;9.818;2023-09-19T00:42:47;16.40;99.90
1948;DHT22;974;52.400;9.818;2023-09-19T00:45:15;16.50;99.90
1948;DHT22;974;52.400;9.818;2023-09-19T00:47:45;16.40;99.90
1948;DHT22;974;52.400;9.818;2023-09-19T00:50:13;16.40;99.90
1948;DHT22;974;52.400;9.818;2023-09-19T00:52:43;16.40;99.90
1948;DHT22;974;52.400;9.818;2023-09-19T00:55:10;16.30;99.90
1948;DHT22;974;52.400;9.818;2023-09-19T00:57:40;16.40;99.90
1948;DHT22;974;52.400;9.818;2023-09-19T01:00:07;16.40;99.90
1948;DHT22;974;52.400;9.818;2023-09-19T01:02:36;16.30;99.90
1948;DHT22;974;52.400;9.818;2023-09-19T01:05:02;16.30;99.90
1948;DHT22;974;52.400;9.818;2023-09-19T01:07:32;16.20;99.90
1948;DHT22;974;52.400;9.818;2023-09-19T01:10:03;16.30;99.90
1948;DHT22;974;52.400;9.818;2023-09-19T01:21:21;16.30;99.90
1948;DHT22;974;52.400;9.818;2023-09-19T01:29:39;16.30;99.90
1948;DHT22;974;52.400;9.818;2023-09-19T01:32:06;16.30;99.90
1948;DHT22;974;52.400;9.818;2023-09-19T01:34:51;16.20;99.90
1948;DHT22;974;52.400;9.818;2023-09-19T01:37:19;16.30;99.90
1948;DHT22;974;52.400;9.818;2023-09-19T01:39:51;16.30;99.90
1948;DHT22;974;52.400;9.818;2023-09-19T01:42:31;16.30;99.90
1948;DHT22;974;52.400;9.818;2023-09-19T01:45:11;16.30;99.90
1948;DHT22;974;52.400;9.818;2023-09-19T01:48:16;16.20;99.90
1948;DHT22;974;52.400;9.818;2023-09-19T01:53:26;16.30;99.90
1948;DHT22;974;52.400;9.818;2023-09-19T01:55:57;16.20;99.90
1948;DHT22;974;52.400;9.818;2023-09-19T01:58:42;16.30;99.90
1948;DHT22;974;52.400;9.818;2023-09-19T02:01:13;16.30;99.90
1948;DHT22;974;52.400;9.818;2023-09-19T02:03:41;16.30;99.90
1948;DHT22;974;52.400;9.818;2023-09-19T02:06:14;16.30;99.90
1948;DHT22;974;52.400;9.818;2023-09-19T02:08:41;16.30;99.90
1948;DHT22;974;52.400;9.818;2023-09-19T02:11:06;16.30;99.90
1948;DHT22;974;52.400;9.818;2023-09-19T02:13:32;16.20;99.90
1948;DHT22;974;52.400;9.818;2023-09-19T02:15:59;16.20;99.90
1948;DHT22;974;52.400;9.818;2023-09-19T02:18:24;16.20;99.90
1948;DHT22;974;52.400;9.818;2023-09-19T02:20:53;16.30;99.90
1948;DHT22;974;52.400;9.818;2023-09-19T02:23:18;16.30;99.90
1948;DHT22;974;52.400;9.818;2023-09-19T02:25:52;16.30;99.90
1948;DHT22;974;52.400;9.818;2023-09-19T02:28:17;16.30;99.90
1948;DHT22;974;52.400;9.818;2023-09-19T02:30:43;16.30;99.90
1948;DHT22;974;52.400;9.818;2023-09-19T02:33:08;16.30;99.90
1948;DHT22;974;52.400;9.818;2023-09-19T02:35:34;16.30;99.90
1948;DHT22;974;52.400;9.818;2023-09-19T02:38:01;16.30;99.90
1948;DHT22;974;52.400;9.818;2023-09-19T02:40:31;16.30;99.90
1948;DHT22;974;52.400;9.818;2023-09-19T02:42:57;16.20;99.90
1948;DHT22;974;52.400;9.818;2023-09-19T02:45:24;16.20;99.90
1948;DHT22;974;52.400;9.818;2023-09-19T02:47:50;16.20;99.90
1948;DHT22;974;52.400;9.818;2023-09-19T02:50:16;16.10;99.90
1948;DHT22;974;52.400;9.818;2023-09-19T02:52:43;16.10;99.90
1948;DHT22;974;52.400;9.818;2023-09-19T02:55:13;16.10;99.90
1948;DHT22;974;52.400;9.818;2023-09-19T02:57:40;16.10;99.90
1948;DHT22;974;52.400;9.818;2023-09-19T03:00:09;16.10;99.90
1948;DHT22;974;52.400;9.818;2023-09-19T03:02:41;16.10;99.90
1948;DHT22;974;52.400;9.818;2023-09-19T03:05:07;16.10;99.90
1948;DHT22;974;52.400;9.818;2023-09-19T03:07:33;16.10;99.90
1948;DHT22;974;52.400;9.818;2023-09-19T03:09:59;16.10;99.90
1948;DHT22;974;52.400;9.818;2023-09-19T03:12:25;16.00;99.90
1948;DHT22;974;52.400;9.818;2023-09-19T03:14:51;16.00;99.90
1948;DHT22;974;52.400;9.818;2023-09-19T03:17:17;15.90;99.90
1948;DHT22;974;52.400;9.818;2023-09-19T03:19:45;15.90;99.90
1948;DHT22;974;52.400;9.818;2023-09-19T03:22:10;15.90;99.90
1948;DHT22;974;52.400;9.818;2023-09-19T03:24:36;15.90;99.90
1948;DHT22;974;52.400;9.818;2023-09-19T03:27:03;15.90;99.90
1948;DHT22;974;52.400;9.818;2023-09-19T03:29:28;15.80;99.90
1948;DHT22;974;52.400;9.818;2023-09-19T03:31:54;15.80;99.90
1948;DHT22;974;52.400;9.818;2023-09-19T03:34:20;15.80;99.90
1948;DHT22;974;52.400;9.818;2023-09-19T03:36:46;15.70;99.90
1948;DHT22;974;52.400;9.818;2023-09-19T03:39:11;15.80;99.90
1948;DHT22;974;52.400;9.818;2023-09-19T03:41:37;15.70;99.90
1948;DHT22;974;52.400;9.818;2023-09-19T03:44:03;15.60;99.90
1948;DHT22;974;52.400;9.818;2023-09-19T03:46:28;15.60;99.90
1948;DHT22;974;52.400;9.818;2023-09-19T03:48:55;15.50;99.90
1948;DHT22;974;52.400;9.818;2023-09-19T03:51:21;15.50;99.90
1948;DHT22;974;52.400;9.818;2023-09-19T03:53:46;15.50;99.90
1948;DHT22;974;52.400;9.818;2023-09-19T03:56:14;15.50;99.90
1948;DHT22;974;52.400;9.818;2023-09-19T03:58:40;15.40;99.90
1948;DHT22;974;52.400;9.818;2023-09-19T04:01:06;15.40;99.90
1948;DHT22;974;52.400;9.818;2023-09-19T04:03:34;15.50;99.90
1948;DHT22;974;52.400;9.818;2023-09-19T04:06:10;15.50;99.90
1948;DHT22;974;52.400;9.818;2023-09-19T04:08:36;15.50;99.90
1948;DHT22;974;52.400;9.818;2023-09-19T04:11:01;15.50;99.90
1948;DHT22;974;52.400;9.818;2023-09-19T04:13:27;15.50;99.90
1948;DHT22;974;52.400;9.818;2023-09-19T04:15:56;15.50;99.90
1948;DHT22;974;52.400;9.818;2023-09-19T04:18:22;15.50;99.90
1948;DHT22;974;52.400;9.818;2023-09-19T04:20:49;15.40;99.90
1948;DHT22;974;52.400;9.818;2023-09-19T04:23:15;15.40;99.90
1948;DHT22;974;52.400;9.818;2023-09-19T04:25:42;15.40;99.90
1948;DHT22;974;52.400;9.818;2023-09-19T04:28:08;15.40;99.90
1948;DHT22;974;52.400;9.818;2023-09-19T04:30:35;15.40;99.90
1948;DHT22;974;52.400;9.818;2023-09-19T04:33:01;15.30;99.90
1948;DHT22;974;52.400;9.818;2023-09-19T04:35:27;15.40;99.90
1948;DHT22;974;52.400;9.818;2023-09-19T04:37:54;15.30;99.90
1948;DHT22;974;52.400;9.818;2023-09-19T04:40:20;15.30;99.90
1948;DHT22;974;52.400;9.818;2023-09-19T04:42:53;15.30;99.90
1948;DHT22;974;52.400;9.818;2023-09-19T04:45:22;15.30;99.90
1948;DHT22;974;52.400;9.818;2023-09-19T04:47:47;15.20;99.90
1948;DHT22;974;52.400;9.818;2023-09-19T04:50:13;15.20;99.90
1948;DHT22;974;52.400;9.818;2023-09-19T04:52:42;15.30;99.90
1948;DHT22;974;52.400;9.818;2023-09-19T04:55:13;15.20;99.90
1948;DHT22;974;52.400;9.818;2023-09-19T04:57:51;15.20;99.90
1948;DHT22;974;52.400;9.818;2023-09-19T05:00:21;15.20;99.90
1948;DHT22;974;52.400;9.818;2023-09-19T05:02:55;15.20;99.90
1948;DHT22;974;52.400;9.818;2023-09-19T05:05:22;15.10;99.90
1948;DHT22;974;52.400;9.818;2023-09-19T05:07:49;15.20;99.90
1948;DHT22;974;52.400;9.818;2023-09-19T05:10:15;15.20;99.90
1948;DHT22;974;52.400;9.818;2023-09-19T05:12:43;15.10;99.90
1948;DHT22;974;52.400;9.818;2023-09-19T05:15:11;15.10;99.90
1948;DHT22;974;52.400;9.818;2023-09-19T05:17:37;15.10;99.90
1948;DHT22;974;52.400;9.818;2023-09-19T05:20:03;15.10;99.90
1948;DHT22;974;52.400;9.818;2023-09-19T05:22:41;15.10;99.90
1948;DHT22;974;52.400;9.818;2023-09-19T05:25:09;15.00;99.90
1948;DHT22;974;52.400;9.818;2023-09-19T05:27:35;15.10;99.90
1948;DHT22;974;52.400;9.818;2023-09-19T05:30:00;15.10;99.90
1948;DHT22;974;52.400;9.818;2023-09-19T05:32:26;15.10;99.90
1948;DHT22;974;52.400;9.818;2023-09-19T05:34:51;15.10;99.90
1948;DHT22;974;52.400;9.818;2023-09-19T05:37:19;15.20;99.90
1948;DHT22;974;52.400;9.818;2023-09-19T05:39:44;15.10;99.90
1948;DHT22;974;52.400;9.818;2023-09-19T05:42:10;15.20;99.90
1948;DHT22;974;52.400;9.818;2023-09-19T05:44:35;15.20;99.90
1948;DHT22;974;52.400;9.818;2023-09-19T05:47:02;15.10;99.90
1948;DHT22;974;52.400;9.818;2023-09-19T05:49:28;15.10;99.90
1948;DHT22;974;52.400;9.818;2023-09-19T05:51:56;15.10;99.90
1948;DHT22;974;52.400;9.818;2023-09-19T05:54:24;15.10;99.90
1948;DHT22;974;52.400;9.818;2023-09-19T05:56:49;15.00;99.90
1948;DHT22;974;52.400;9.818;2023-09-19T05:59:18;15.00;99.90
1948;DHT22;974;52.400;9.818;2023-09-19T06:01:44;15.00;99.90
1948;DHT22;974;52.400;9.818;2023-09-19T06:04:09;15.10;99.90
1948;DHT22;974;52.400;9.818;2023-09-19T06:06:35;15.10;99.90
1948;DHT22;974;52.400;9.818;2023-09-19T06:09:04;15.10;99.90
1948;DHT22;974;52.400;9.818;2023-09-19T06:11:31;15.10;99.90
1948;DHT22;974;52.400;9.818;2023-09-19T06:14:00;15.10;99.90
1948;DHT22;974;52.400;9.818;2023-09-19T06:16:30;15.00;99.90
1948;DHT22;974;52.400;9.818;2023-09-19T06:18:57;15.00;99.90
1948;DHT22;974;52.400;9.818;2023-09-19T06:21:25;15.00;99.90
1948;DHT22;974;52.400;9.818;2023-09-19T06:23:52;15.00;99.90
1948;DHT22;974;52.400;9.818;2023-09-19T06:26:18;15.10;99.90
1948;DHT22;974;52.400;9.818;2023-09-19T06:28:43;15.00;99.90
1948;DHT22;974;52.400;9.818;2023-09-19T06:31:09;15.10;99.90
1948;DHT22;974;52.400;9.818;2023-09-19T06:33:38;15.10;99.90
1948;DHT22;974;52.400;9.818;2023-09-19T06:36:05;15.10;99.90
1948;DHT22;974;52.400;9.818;2023-09-19T06:38:31;15.10;99.90
1948;DHT22;974;52.400;9.818;2023-09-19T06:40:59;15.10;99.90
1948;DHT22;974;52.400;9.818;2023-09-19T06:43:25;15.10;99.90
1948;DHT22;974;52.400;9.818;2023-09-19T06:45:51;15.20;99.90
1948;DHT22;974;52.400;9.818;2023-09-19T06:48:17;15.20;99.90
1948;DHT22;974;52.400;9.818;2023-09-19T06:50:43;15.20;99.90
1948;DHT22;974;52.400;9.818;2023-09-19T06:53:10;15.20;99.90
1948;DHT22;974;52.400;9.818;2023-09-19T06:55:36;15.20;99.90
1948;DHT22;974;52.400;9.818;2023-09-19T06:58:02;15.20;99.90
1948;DHT22;974;52.400;9.818;2023-09-19T07:00:28;15.30;99.90
1948;DHT22;974;52.400;9.818;2023-09-19T07:03:06;15.20;99.90
1948;DHT22;974;52.400;9.818;2023-09-19T07:05:37;15.30;99.90
1948;DHT22;974;52.400;9.818;2023-09-19T07:08:04;15.40;99.90
1948;DHT22;974;52.400;9.818;2023-09-19T07:10:32;15.40;99.90
1948;DHT22;974;52.400;9.818;2023-09-19T07:13:02;15.40;99.90
1948;DHT22;974;52.400;9.818;2023-09-19T07:15:29;15.40;99.90
1948;DHT22;974;52.400;9.818;2023-09-19T07:17:56;15.40;99.90
1948;DHT22;974;52.400;9.818;2023-09-19T07:20:23;15.50;99.90
1948;DHT22;974;52.400;9.818;2023-09-19T07:22:51;15.50;99.90
1948;DHT22;974;52.400;9.818;2023-09-19T07:25:17;15.50;99.90
1948;DHT22;974;52.400;9.818;2023-09-19T07:27:43;15.60;99.90
1948;DHT22;974;52.400;9.818;2023-09-19T07:30:12;15.60;99.90
1948;DHT22;974;52.400;9.818;2023-09-19T07:32:38;15.60;99.90
1948;DHT22;974;52.400;9.818;2023-09-19T07:35:04;15.60;99.90
1948;DHT22;974;52.400;9.818;2023-09-19T07:37:33;15.70;99.90
1948;DHT22;974;52.400;9.818;2023-09-19T07:39:59;15.80;99.90
1948;DHT22;974;52.400;9.818;2023-09-19T07:42:26;15.70;99.90
1948;DHT22;974;52.400;9.818;2023-09-19T07:44:52;15.70;99.90
1948;DHT22;974;52.400;9.818;2023-09-19T07:47:19;15.80;99.90
1948;DHT22;974;52.400;9.818;2023-09-19T07:49:49;15.80;99.90
1948;DHT22;974;52.400;9.818;2023-09-19T07:52:15;15.90;99.90
1948;DHT22;974;52.400;9.818;2023-09-19T07:54:41;16.00;99.90
1948;DHT22;974;52.400;9.818;2023-09-19T07:57:09;16.00;99.90
1948;DHT22;974;52.400;9.818;2023-09-19T07:59:35;16.00;99.90
1948;DHT22;974;52.400;9.818;2023-09-19T08:02:01;16.00;99.90
1948;DHT22;974;52.400;9.818;2023-09-19T08:04:30;16.00;99.90
1948;DHT22;974;52.400;9.818;2023-09-19T08:06:57;16.10;99.90
1948;DHT22;974;52.400;9.818;2023-09-19T08:09:24;16.10;99.90
1948;DHT22;974;52.400;9.818;2023-09-19T08:11:49;16.20;99.90
1948;DHT22;974;52.400;9.818;2023-09-19T08:14:16;16.10;99.90
1948;DHT22;974;52.400;9.818;2023-09-19T08:16:41;16.10;99.90
1948;DHT22;974;52.400;9.818;2023-09-19T08:19:09;16.10;99.90
1948;DHT22;974;52.400;9.818;2023-09-19T08:21:36;16.20;99.90
1948;DHT22;974;52.400;9.818;2023-09-19T08:24:01;16.20;99.90
1948;DHT22;974;52.400;9.818;2023-09-19T08:26:29;16.20;99.90
1948;DHT22;974;52.400;9.818;2023-09-19T08:28:56;16.10;99.90
1948;DHT22;974;52.400;9.818;2023-09-19T08:31:21;16.10;99.90
1948;DHT22;974;52.400;9.818;2023-09-19T08:33:48;16.20;99.90
1948;DHT22;974;52.400;9.818;2023-09-19T08:36:14;16.20;99.90
1948;DHT22;974;52.400;9.818;2023-09-19T08:38:40;16.20;99.90
1948;DHT22;974;52.400;9.818;2023-09-19T08:41:07;16.30;99.90
1948;DHT22;974;52.400;9.818;2023-09-19T08:43:33;16.40;99.90
1948;DHT22;974;52.400;9.818;2023-09-19T08:46:12;16.50;99.90
1948;DHT22;974;52.400;9.818;2023-09-19T08:48:53;16.50;99.90
1948;DHT22;974;52.400;9.818;2023-09-19T08:51:49;16.40;99.90
1948;DHT22;974;52.400;9.818;2023-09-19T08:54:21;16.50;99.90
1948;DHT22;974;52.400;9.818;2023-09-19T08:56:48;16.50;99.90
1948;DHT22;974;52.400;9.818;2023-09-19T08:59:15;16.50;99.90
1948;DHT22;974;52.400;9.818;2023-09-19T09:01:42;16.40;99.90
1948;DHT22;974;52.400;9.818;2023-09-19T09:04:09;16.50;99.90
1948;DHT22;974;52.400;9.818;2023-09-19T09:06:39;16.50;99.90
1948;DHT22;974;52.400;9.818;2023-09-19T09:09:08;16.60;99.90
1948;DHT22;974;52.400;9.818;2023-09-19T09:11:34;16.50;99.90
1948;DHT22;974;52.400;9.818;2023-09-19T09:14:02;16.60;99.90
1948;DHT22;974;52.400;9.818;2023-09-19T09:16:30;16.60;99.90
1948;DHT22;974;52.400;9.818;2023-09-19T09:18:55;16.70;99.90
1948;DHT22;974;52.400;9.818;2023-09-19T09:21:27;16.80;99.90
1948;DHT22;974;52.400;9.818;2023-09-19T09:23:54;16.80;99.90
1948;DHT22;974;52.400;9.818;2023-09-19T09:29:04;16.90;99.90
1948;DHT22;974;52.400;9.818;2023-09-19T09:31:29;16.90;99.90
1948;DHT22;974;52.400;9.818;2023-09-19T09:33:56;17.00;99.90
1948;DHT22;974;52.400;9.818;2023-09-19T09:36:39;17.00;99.90
1948;DHT22;974;52.400;9.818;2023-09-19T09:39:07;17.10;99.90
1948;DHT22;974;52.400;9.818;2023-09-19T09:41:44;17.10;99.90
1948;DHT22;974;52.400;9.818;2023-09-19T09:44:18;17.30;99.90
1948;DHT22;974;52.400;9.818;2023-09-19T09:46:46;17.20;99.90
1948;DHT22;974;52.400;9.818;2023-09-19T09:49:27;17.20;99.90
1948;DHT22;974;52.400;9.818;2023-09-19T09:52:06;17.20;99.90
1948;DHT22;974;52.400;9.818;2023-09-19T09:55:02;17.40;99.90
1948;DHT22;974;52.400;9.818;2023-09-19T09:57:33;17.20;99.90
1948;DHT22;974;52.400;9.818;2023-09-19T09:59:59;17.20;99.90
1948;DHT22;974;52.400;9.818;2023-09-19T10:02:41;17.30;99.90
1948;DHT22;974;52.400;9.818;2023-09-19T10:07:52;17.40;99.90
1948;DHT22;974;52.400;9.818;2023-09-19T10:10:39;17.70;99.90
1948;DHT22;974;52.400;9.818;2023-09-19T10:13:05;17.70;99.90
1948;DHT22;974;52.400;9.818;2023-09-19T10:15:33;17.70;99.90
1948;DHT22;974;52.400;9.818;2023-09-19T10:18:04;17.70;99.90
1948;DHT22;974;52.400;9.818;2023-09-19T10:20:31;17.60;99.90
1948;DHT22;974;52.400;9.818;2023-09-19T10:23:11;17.80;99.90
1948;DHT22;974;52.400;9.818;2023-09-19T10:25:41;17.90;99.90
1948;DHT22;974;52.400;9.818;2023-09-19T10:28:09;18.10;99.90
1948;DHT22;974;52.400;9.818;2023-09-19T10:30:44;18.10;99.90
1948;DHT22;974;52.400;9.818;2023-09-19T10:33:16;18.30;99.90
1948;DHT22;974;52.400;9.818;2023-09-19T10:35:46;18.10;99.90
1948;DHT22;974;52.400;9.818;2023-09-19T10:38:14;17.90;99.90
1948;DHT22;974;52.400;9.818;2023-09-19T10:40:40;17.90;99.90
1948;DHT22;974;52.400;9.818;2023-09-19T10:43:17;18.10;99.90
1948;DHT22;974;52.400;9.818;2023-09-19T10:45:49;17.80;99.90
1948;DHT22;974;52.400;9.818;2023-09-19T10:48:16;18.00;99.90
1948;DHT22;974;52.400;9.818;2023-09-19T10:50:57;18.10;99.90
1948;DHT22;974;52.400;9.818;2023-09-19T10:53:26;18.00;99.90
1948;DHT22;974;52.400;9.818;2023-09-19T10:55:56;17.90;99.90
1948;DHT22;974;52.400;9.818;2023-09-19T10:58:27;17.90;99.90
1948;DHT22;974;52.400;9.818;2023-09-19T11:00:57;18.10;99.90
1948;DHT22;974;52.400;9.818;2023-09-19T11:03:37;18.00;99.90
1948;DHT22;974;52.400;9.818;2023-09-19T11:06:15;18.00;99.90
1948;DHT22;974;52.400;9.818;2023-09-19T11:08:59;18.00;99.90
1948;DHT22;974;52.400;9.818;2023-09-19T11:30:45;19.00;99.90
1948;DHT22;974;52.400;9.818;2023-09-19T11:36:05;18.80;99.90
1948;DHT22;974;52.400;9.818;2023-09-19T11:43:51;18.90;99.90
1948;DHT22;974;52.400;9.818;2023-09-19T11:46:17;18.90;99.90
1948;DHT22;974;52.400;9.818;2023-09-19T11:48:48;19.00;99.90
1948;DHT22;974;52.400;9.818;2023-09-19T11:51:22;19.10;99.90
1948;DHT22;974;52.400;9.818;2023-09-19T11:53:50;19.20;99.90
1948;DHT22;974;52.400;9.818;2023-09-19T11:56:19;19.40;99.90
1948;DHT22;974;52.400;9.818;2023-09-19T11:58:46;19.20;99.90
1948;DHT22;974;52.400;9.818;2023-09-19T12:01:15;19.30;99.90
1948;DHT22;974;52.400;9.818;2023-09-19T12:03:47;19.50;99.90
1948;DHT22;974;52.400;9.818;2023-09-19T12:06:14;19.90;99.90
1948;DHT22;974;52.400;9.818;2023-09-19T12:08:42;19.80;99.90
1948;DHT22;974;52.400;9.818;2023-09-19T12:11:14;19.30;99.90
1948;DHT22;974;52.400;9.818;2023-09-19T12:13:47;19.40;99.90
1948;DHT22;974;52.400;9.818;2023-09-19T12:16:19;19.70;99.90
1948;DHT22;974;52.400;9.818;2023-09-19T12:18:47;19.20;99.90
1948;DHT22;974;52.400;9.818;2023-09-19T12:21:41;19.60;99.90
1948;DHT22;974;52.400;9.818;2023-09-19T12:24:11;19.30;99.90
1948;DHT22;974;52.400;9.818;2023-09-19T12:26:43;19.30;99.90
1948;DHT22;974;52.400;9.818;2023-09-19T12:29:15;19.20;99.90
1948;DHT22;974;52.400;9.818;2023-09-19T12:31:55;19.10;99.90
1948;DHT22;974;52.400;9.818;2023-09-19T12:34:25;19.20;99.90
1948;DHT22;974;52.400;9.818;2023-09-19T12:37:12;19.20;99.90
1948;DHT22;974;52.400;9.818;2023-09-19T12:39:45;19.10;99.90
1948;DHT22;974;52.400;9.818;2023-09-19T12:42:23;19.10;99.90
1948;DHT22;974;52.400;9.818;2023-09-19T12:44:52;19.10;99.90
1948;DHT22;974;52.400;9.818;2023-09-19T12:47:22;19.20;99.90
1948;DHT22;974;52.400;9.818;2023-09-19T12:52:52;19.50;99.90
1948;DHT22;974;52.400;9.818;2023-09-19T12:55:28;19.50;99.90
1948;DHT22;974;52.400;9.818;2023-09-19T12:57:58;19.50;99.90
1948;DHT22;974;52.400;9.818;2023-09-19T13:00:43;19.50;99.90
1948;DHT22;974;52.400;9.818;2023-09-19T13:03:25;19.50;99.90
1948;DHT22;974;52.400;9.818;2023-09-19T13:05:54;19.50;99.90
1948;DHT22;974;52.400;9.818;2023-09-19T13:08:26;19.50;99.90
1948;DHT22;974;52.400;9.818;2023-09-19T13:13:27;19.40;99.90
1948;DHT22;974;52.400;9.818;2023-09-19T13:15:54;19.50;99.90
1948;DHT22;974;52.400;9.818;2023-09-19T13:18:23;19.60;99.90
1948;DHT22;974;52.400;9.818;2023-09-19T13:21:08;19.50;99.90
1948;DHT22;974;52.400;9.818;2023-09-19T13:23:38;19.60;99.90
1948;DHT22;974;52.400;9.818;2023-09-19T13:26:03;19.80;99.90
1948;DHT22;974;52.400;9.818;2023-09-19T13:28:33;19.80;99.90
1948;DHT22;974;52.400;9.818;2023-09-19T13:30:58;19.90;99.90
1948;DHT22;974;52.400;9.818;2023-09-19T13:33:24;19.90;99.90
1948;DHT22;974;52.400;9.818;2023-09-19T13:35:51;19.70;99.90
1948;DHT22;974;52.400;9.818;2023-09-19T13:38:18;19.70;99.90
1948;DHT22;974;52.400;9.818;2023-09-19T13:40:47;19.60;99.90
1948;DHT22;974;52.400;9.818;2023-09-19T13:43:13;19.90;99.90
1948;DHT22;974;52.400;9.818;2023-09-19T13:45:39;19.80;99.90
1948;DHT22;974;52.400;9.818;2023-09-19T13:48:07;19.70;99.90
1948;DHT22;974;52.400;9.818;2023-09-19T13:50:34;19.70;99.90
1948;DHT22;974;52.400;9.818;2023-09-19T13:53:01;19.70;99.90
1948;DHT22;974;52.400;9.818;2023-09-19T13:55:28;19.70;99.90
1948;DHT22;974;52.400;9.818;2023-09-19T13:57:53;19.90;99.90
1948;DHT22;974;52.400;9.818;2023-09-19T14:00:23;19.90;99.90
1948;DHT22;974;52.400;9.818;2023-09-19T14:02:49;19.80;99.90
1948;DHT22;974;52.400;9.818;2023-09-19T14:05:16;19.70;99.90
1948;DHT22;974;52.400;9.818;2023-09-19T14:07:45;19.80;99.90
1948;DHT22;974;52.400;9.818;2023-09-19T14:10:13;19.80;99.90
1948;DHT22;974;52.400;9.818;2023-09-19T14:12:39;19.90;99.90
1948;DHT22;974;52.400;9.818;2023-09-19T14:15:07;20.10;99.90
1948;DHT22;974;52.400;9.818;2023-09-19T14:17:33;20.10;99.90
1948;DHT22;974;52.400;9.818;2023-09-19T14:19:59;19.90;99.90
1948;DHT22;974;52.400;9.818;2023-09-19T14:22:25;20.00;99.90
1948;DHT22;974;52.400;9.818;2023-09-19T14:24:50;20.00;99.90
1948;DHT22;974;52.400;9.818;2023-09-19T14:27:16;19.90;99.90
1948;DHT22;974;52.400;9.818;2023-09-19T14:29:42;19.90;99.90
1948;DHT22;974;52.400;9.818;2023-09-19T14:32:07;19.80;99.90
1948;DHT22;974;52.400;9.818;2023-09-19T14:34:33;19.80;99.90
1948;DHT22;974;52.400;9.818;2023-09-19T14:36:58;20.00;99.90
1948;DHT22;974;52.400;9.818;2023-09-19T14:39:24;20.10;99.90
1948;DHT22;974;52.400;9.818;2023-09-19T14:41:50;20.10;99.90
1948;DHT22;974;52.400;9.818;2023-09-19T14:44:16;19.90;99.90
1948;DHT22;974;52.400;9.818;2023-09-19T14:46:42;19.80;99.90
1948;DHT22;974;52.400;9.818;2023-09-19T14:49:09;19.80;99.90
1948;DHT22;974;52.400;9.818;2023-09-19T14:51:35;19.90;99.90
1948;DHT22;974;52.400;9.818;2023-09-19T14:54:01;19.90;99.90
1948;DHT22;974;52.400;9.818;2023-09-19T14:56:27;19.70;99.90
1948;DHT22;974;52.400;9.818;2023-09-19T14:58:55;19.60;99.90
1948;DHT22;974;52.400;9.818;2023-09-19T15:01:21;19.50;99.90
1948;DHT22;974;52.400;9.818;2023-09-19T15:03:47;19.50;99.90
1948;DHT22;974;52.400;9.818;2023-09-19T15:06:15;19.60;99.90
1948;DHT22;974;52.400;9.818;2023-09-19T15:08:43;19.60;99.90
1948;DHT22;974;52.400;9.818;2023-09-19T15:11:19;19.60;99.90
1948;DHT22;974;52.400;9.818;2023-09-19T15:13:47;19.70;99.90
1948;DHT22;974;52.400;9.818;2023-09-19T15:16:16;19.80;99.90
1948;DHT22;974;52.400;9.818;2023-09-19T15:18:43;19.80;99.90
1948;DHT22;974;52.400;9.818;2023-09-19T15:21:12;19.70;99.90
1948;DHT22;974;52.400;9.818;2023-09-19T15:23:40;19.70;99.90
1948;DHT22;974;52.400;9.818;2023-09-19T15:26:07;19.70;99.90
1948;DHT22;974;52.400;9.818;2023-09-19T15:28:37;19.80;99.90
1948;DHT22;974;52.400;9.818;2023-09-19T15:31:05;19.80;99.90
1948;DHT22;974;52.400;9.818;2023-09-19T15:33:32;19.80;99.90
1948;DHT22;974;52.400;9.818;2023-09-19T15:36:04;19.80;99.90
1948;DHT22;974;52.400;9.818;2023-09-19T15:38:31;19.80;99.90
1948;DHT22;974;52.400;9.818;2023-09-19T15:40:59;19.80;99.90
1948;DHT22;974;52.400;9.818;2023-09-19T15:43:25;19.70;99.90
1948;DHT22;974;52.400;9.818;2023-09-19T15:45:51;19.70;99.90
1948;DHT22;974;52.400;9.818;2023-09-19T15:48:17;19.70;99.90
1948;DHT22;974;52.400;9.818;2023-09-19T15:50:44;19.70;99.90
1948;DHT22;974;52.400;9.818;2023-09-19T15:53:10;19.70;99.90
1948;DHT22;974;52.400;9.818;2023-09-19T15:55:38;19.70;99.90
1948;DHT22;974;52.400;9.818;2023-09-19T15:58:08;19.70;99.90
1948;DHT22;974;52.400;9.818;2023-09-19T16:00:34;19.50;99.90
1948;DHT22;974;52.400;9.818;2023-09-19T16:03:01;19.50;99.90
1948;DHT22;974;52.400;9.818;2023-09-19T16:05:27;19.30;99.90
1948;DHT22;974;52.400;9.818;2023-09-19T16:07:53;19.30;99.90
1948;DHT22;974;52.400;9.818;2023-09-19T16:10:19;19.40;99.90
1948;DHT22;974;52.400;9.818;2023-09-19T16:12:44;19.40;99.90
1948;DHT22;974;52.400;9.818;2023-09-19T16:15:10;19.30;99.90
1948;DHT22;974;52.400;9.818;2023-09-19T16:17:41;19.30;99.90
1948;DHT22;974;52.400;9.818;2023-09-19T16:20:06;19.20;99.90
1948;DHT22;974;52.400;9.818;2023-09-19T16:22:33;19.20;99.90
1948;DHT22;974;52.400;9.818;2023-09-19T16:24:59;19.20;99.90
1948;DHT22;974;52.400;9.818;2023-09-19T16:27:25;19.20;99.90
1948;DHT22;974;52.400;9.818;2023-09-19T16:29:50;19.20;99.90
1948;DHT22;974;52.400;9.818;2023-09-19T16:32:16;19.10;99.90
1948;DHT22;974;52.400;9.818;2023-09-19T16:34:42;19.10;99.90
1948;DHT22;974;52.400;9.818;2023-09-19T16:37:07;19.10;99.90
1948;DHT22;974;52.400;9.818;2023-09-19T16:39:33;19.10;99.90
1948;DHT22;974;52.400;9.818;2023-09-19T16:41:59;19.10;99.90
1948;DHT22;974;52.400;9.818;2023-09-19T16:44:25;19.00;99.90
1948;DHT22;974;52.400;9.818;2023-09-19T16:46:50;19.00;99.90
1948;DHT22;974;52.400;9.818;2023-09-19T16:49:21;19.00;99.90
1948;DHT22;974;52.400;9.818;2023-09-19T16:51:47;19.00;99.90
1948;DHT22;974;52.400;9.818;2023-09-19T16:54:12;19.00;99.90
1948;DHT22;974;52.400;9.818;2023-09-19T16:56:38;19.00;99.90
1948;DHT22;974;52.400;9.818;2023-09-19T16:59:04;18.90;99.90
1948;DHT22;974;52.400;9.818;2023-09-19T17:01:31;18.90;99.90
1948;DHT22;974;52.400;9.818;2023-09-19T17:03:58;18.90;99.90
1948;DHT22;974;52.400;9.818;2023-09-19T17:06:24;18.80;99.90
1948;DHT22;974;52.400;9.818;2023-09-19T17:08:51;18.80;99.90
1948;DHT22;974;52.400;9.818;2023-09-19T17:11:17;18.80;99.90
1948;DHT22;974;52.400;9.818;2023-09-19T17:13:44;18.80;99.90
1948;DHT22;974;52.400;9.818;2023-09-19T17:16:13;18.70;99.90
1948;DHT22;974;52.400;9.818;2023-09-19T17:18:45;18.60;99.90
1948;DHT22;974;52.400;9.818;2023-09-19T17:21:11;18.60;99.90